Time;durP1;ratioP1;P1;durP2;ratioP2;P2;SDS_P1;SDS_P2;PMS_P1;PMS_P2;Temp;Humidity;BMP_temperature;BMP_pressure;BME280_temperature;BME280_humidity;BME280_pressure;Samples;Min_cycle;Max_cycle;Signal;HPM_P1;HPM_P2
2021/01/08 00:02:18;;;;;;;10.70;10.20;;;;;;;7.95;64.25;101270.81;4991713;28;20492;-89
2021/01/08 00:04:43;;;;;;;8.48;7.97;;;;;;;8.00;64.03;101268.44;5006161;28;20033;-89
2021/01/08 00:07:09;;;;;;;9.75;8.93;;;;;;;8.07;64.05;101277.56;5006571;28;20072;-89
2021/01/08 00:09:34;;;;;;;5.47;5.18;;;;;;;8.03;63.96;101270.78;5007408;28;20033;-88
2021/01/08 00:12:00;;;;;;;5.63;5.28;;;;;;;8.04;63.93;101270.63;4989211;28;20026;-89
2021/01/08 00:14:25;;;;;;;4.55;4.32;;;;;;;7.96;63.84;101261.66;4997826;28;20039;-87
2021/01/08 00:16:51;;;;;;;5.75;5.45;;;;;;;7.92;64.10;101250.31;4989848;28;20037;-88
2021/01/08 00:19:16;;;;;;;4.93;4.63;;;;;;;7.96;63.90;101259.81;5006645;28;20037;-88
2021/01/08 00:21:42;;;;;;;6.38;5.90;;;;;;;7.97;63.84;101266.06;4990486;28;20566;-88
2021/01/08 00:24:12;;;;;;;4.05;3.75;;;;;;;7.92;63.78;101249.47;4992987;28;20022;-89
2021/01/08 00:26:41;;;;;;;5.35;4.90;;;;;;;7.87;64.13;101250.81;4990352;28;20061;-87
2021/01/08 00:29:07;;;;;;;5.63;5.40;;;;;;;7.97;64.00;101263.34;5008153;28;20025;-88
2021/01/08 00:31:41;;;;;;;6.70;6.40;;;;;;;7.98;64.03;101268.59;5006077;28;20104;-89
2021/01/08 00:34:13;;;;;;;4.88;4.47;;;;;;;7.79;64.33;101245.41;5024637;28;20673;-91
2021/01/08 00:36:55;;;;;;;5.03;4.53;;;;;;;7.94;64.49;101266.38;4989295;28;20033;-88
2021/01/08 00:39:23;;;;;;;4.50;4.30;;;;;;;7.97;64.31;101268.75;5022434;28;20150;-92
2021/01/08 00:41:49;;;;;;;4.90;4.50;;;;;;;7.92;64.25;101258.44;5011311;28;20503;-90
2021/01/08 00:44:39;;;;;;;6.15;5.75;;;;;;;7.99;64.17;101269.47;5007827;28;20033;-91
2021/01/08 00:47:10;;;;;;;7.68;7.35;;;;;;;8.01;64.07;101262.00;5004734;28;20034;-89
2021/01/08 00:49:36;;;;;;;11.18;10.68;;;;;;;7.96;64.09;101261.66;4992120;28;20034;-90
2021/01/08 00:52:04;;;;;;;6.43;6.10;;;;;;;8.06;64.11;101262.31;4990204;28;20049;-88
2021/01/08 00:54:30;;;;;;;6.75;6.28;;;;;;;7.97;64.24;101253.38;4990449;28;20611;-90
2021/01/08 00:56:58;;;;;;;5.75;5.55;;;;;;;8.01;64.00;101259.28;4990430;28;20037;-91
2021/01/08 00:59:27;;;;;;;5.15;4.85;;;;;;;8.09;64.02;101269.28;4991743;28;20064;-92
2021/01/08 01:01:52;;;;;;;7.25;6.95;;;;;;;7.97;64.12;101252.50;5007267;28;20405;-91
2021/01/08 01:04:17;;;;;;;8.65;8.23;;;;;;;7.99;64.33;101266.75;5009471;28;20053;-90
2021/01/08 01:06:43;;;;;;;4.45;4.25;;;;;;;7.98;64.45;101255.06;4992790;28;20022;-91
2021/01/08 01:09:08;;;;;;;6.10;5.90;;;;;;;8.10;64.15;101269.09;4994211;28;20535;-90
2021/01/08 01:11:34;;;;;;;5.75;5.45;;;;;;;8.06;64.52;101267.75;4998611;28;20481;-91
2021/01/08 01:14:00;;;;;;;4.57;4.38;;;;;;;7.98;64.66;101257.75;5012971;28;20116;-90
2021/01/08 01:16:27;;;;;;;5.20;5.00;;;;;;;8.08;64.57;101273.88;4997093;28;20033;-89
2021/01/08 01:18:54;;;;;;;4.68;4.47;;;;;;;8.06;64.44;101257.78;4996521;28;20038;-91
2021/01/08 01:21:20;;;;;;;4.60;4.40;;;;;;;8.16;64.03;101283.84;5012990;28;20090;-91
2021/01/08 01:23:45;;;;;;;4.72;4.43;;;;;;;8.16;64.28;101279.28;5012948;28;20121;-90
2021/01/08 01:26:11;;;;;;;8.40;7.90;;;;;;;8.14;64.37;101269.59;4996920;28;20034;-90
2021/01/08 01:28:37;;;;;;;4.80;4.30;;;;;;;8.14;64.45;101275.03;5010811;28;20060;-92
2021/01/08 01:31:05;;;;;;;5.15;4.82;;;;;;;8.15;64.33;101280.28;4980420;28;20030;-90
2021/01/08 01:33:31;;;;;;;6.85;6.55;;;;;;;8.18;64.28;101277.22;5011164;28;20029;-91
2021/01/08 01:35:56;;;;;;;6.30;5.80;;;;;;;8.15;64.44;101279.44;4996472;28;20036;-91
2021/01/08 01:38:22;;;;;;;8.80;8.25;;;;;;;8.19;64.21;101278.09;5011236;28;20121;-90
2021/01/08 01:40:49;;;;;;;9.35;8.75;;;;;;;8.07;64.16;101261.31;5011711;28;20045;-91
2021/01/08 01:43:15;;;;;;;8.40;8.00;;;;;;;8.10;64.46;101263.69;4994459;28;20665;-91
2021/01/08 01:45:41;;;;;;;8.57;6.80;;;;;;;8.12;64.47;101280.63;5002417;28;20056;-90
2021/01/08 01:48:08;;;;;;;8.70;7.88;;;;;;;8.12;64.71;101283.31;5012486;28;20065;-90
2021/01/08 01:50:34;;;;;;;7.47;7.07;;;;;;;8.14;64.57;101284.03;4997269;28;20108;-89
2021/01/08 01:53:00;;;;;;;4.32;4.13;;;;;;;8.11;64.54;101284.34;4995722;28;20042;-89
2021/01/08 01:55:26;;;;;;;6.15;5.75;;;;;;;8.11;64.59;101289.78;5012621;28;20100;-90
2021/01/08 01:57:52;;;;;;;5.15;4.75;;;;;;;8.10;64.56;101290.78;4994203;28;20038;-91
2021/01/08 02:00:19;;;;;;;6.93;6.40;;;;;;;8.15;64.42;101292.97;5012156;28;20041;-90
2021/01/08 02:02:50;;;;;;;4.50;4.25;;;;;;;8.10;64.31;101279.94;4998903;28;20081;-91
2021/01/08 02:05:18;;;;;;;4.28;3.97;;;;;;;8.09;64.49;101288.25;5011451;28;20109;-91
2021/01/08 02:08:13;;;;;;;3.90;3.70;;;;;;;8.18;64.46;101300.78;5011017;28;20034;-91
2021/01/08 02:10:51;;;;;;;5.35;4.80;;;;;;;8.17;64.56;101296.34;5010457;28;20040;-90
2021/01/08 02:13:22;;;;;;;4.90;4.45;;;;;;;8.21;64.29;101303.97;5004341;28;20030;-88
2021/01/08 02:15:48;;;;;;;4.78;4.57;;;;;;;8.18;64.36;101308.91;5010522;28;20033;-90
2021/01/08 02:18:15;;;;;;;4.65;4.45;;;;;;;8.08;64.31;101295.53;4994981;28;20030;-86
2021/01/08 02:20:42;;;;;;;4.95;3.72;;;;;;;8.15;64.36;101314.66;4996473;28;20180;-89
2021/01/08 02:23:14;;;;;;;6.95;6.13;;;;;;;8.13;64.36;101312.13;5011906;28;20040;-89
2021/01/08 02:25:40;;;;;;;5.35;5.15;;;;;;;8.12;64.56;101315.84;5010570;28;20033;-90
2021/01/08 02:28:06;;;;;;;9.13;8.50;;;;;;;8.11;64.30;101306.03;5010940;28;20041;-89
2021/01/08 02:30:36;;;;;;;6.18;5.88;;;;;;;8.09;64.17;101308.03;5010488;28;20092;-88
2021/01/08 02:33:03;;;;;;;6.10;3.88;;;;;;;8.11;64.30;101311.44;5010211;28;20133;-89
2021/01/08 02:35:33;;;;;;;8.15;7.45;;;;;;;8.10;64.31;101311.63;5009974;28;20034;-91
2021/01/08 02:37:59;;;;;;;3.70;3.50;;;;;;;8.03;64.33;101300.59;4992838;28;20027;-90
2021/01/08 02:40:25;;;;;;;4.88;4.43;;;;;;;8.05;64.35;101301.28;5003007;28;20073;-90
2021/01/08 02:42:57;;;;;;;3.90;3.72;;;;;;;8.01;64.21;101292.63;4995308;28;20029;-90
2021/01/08 02:45:23;;;;;;;3.35;3.15;;;;;;;8.11;64.13;101314.16;5009308;28;20388;-92
2021/01/08 02:47:48;;;;;;;6.15;5.85;;;;;;;8.11;64.37;101322.28;4997177;28;20030;-92
2021/01/08 02:50:14;;;;;;;7.20;6.60;;;;;;;8.12;64.27;101321.25;4994324;28;20038;-90
2021/01/08 02:52:43;;;;;;;6.47;6.03;;;;;;;8.12;64.29;101320.41;5008285;28;20037;-89
2021/01/08 02:55:11;;;;;;;5.30;4.72;;;;;;;8.09;64.34;101316.16;5010133;28;20473;-90
2021/01/08 02:57:36;;;;;;;4.95;4.57;;;;;;;8.06;64.46;101305.66;4994634;28;20826;-90
2021/01/08 03:00:04;;;;;;;6.10;5.75;;;;;;;8.11;64.33;101314.16;5009084;28;20033;-90
2021/01/08 03:02:30;;;;;;;7.20;6.68;;;;;;;8.13;64.44;101325.66;4992499;28;20396;-90
2021/01/08 03:04:55;;;;;;;11.05;9.98;;;;;;;8.00;64.33;101295.50;4993037;28;20116;-90
2021/01/08 03:07:21;;;;;;;8.05;7.57;;;;;;;8.10;64.27;101307.03;5010945;28;20063;-90
2021/01/08 03:09:47;;;;;;;8.23;7.72;;;;;;;8.09;64.46;101304.50;5024826;28;20026;-89
2021/01/08 03:12:14;;;;;;;3.20;3.05;;;;;;;8.11;64.47;101313.28;5008667;28;20029;-90
2021/01/08 03:14:43;;;;;;;5.57;5.28;;;;;;;8.09;64.40;101313.47;4993136;28;20030;-90
2021/01/08 03:17:08;;;;;;;6.25;5.75;;;;;;;8.10;64.41;101323.28;5014725;28;20036;-89
2021/01/08 03:19:33;;;;;;;6.40;6.10;;;;;;;8.05;64.30;101306.69;5026156;28;20038;-91
2021/01/08 03:21:59;;;;;;;8.18;7.68;;;;;;;8.07;64.26;101318.22;4988988;28;20076;-90
2021/01/08 03:24:24;;;;;;;3.50;3.05;;;;;;;8.02;64.29;101313.28;4994368;28;20034;-89
2021/01/08 03:26:50;;;;;;;8.23;7.82;;;;;;;8.09;64.42;101316.16;4979881;28;20029;-91
2021/01/08 03:29:15;;;;;;;9.95;9.25;;;;;;;7.98;64.46;101306.50;4977307;28;20064;-91
2021/01/08 03:31:41;;;;;;;3.92;3.72;;;;;;;7.97;64.40;101309.38;5008552;28;20034;-91
2021/01/08 03:34:06;;;;;;;3.17;2.97;;;;;;;8.03;64.35;101316.84;4993294;28;20022;-90
2021/01/08 03:36:31;;;;;;;5.63;5.32;;;;;;;8.02;64.33;101317.88;4990849;28;20034;-90
2021/01/08 03:38:57;;;;;;;5.60;5.30;;;;;;;7.95;64.42;101314.13;4988315;28;20046;-91
2021/01/08 03:41:22;;;;;;;6.25;5.95;;;;;;;7.97;64.31;101322.94;5010542;28;20098;-89
2021/01/08 03:43:48;;;;;;;6.45;6.07;;;;;;;7.88;64.36;101309.38;4977199;28;20037;-89
2021/01/08 03:46:13;;;;;;;9.05;8.65;;;;;;;7.88;64.37;101313.97;5012010;28;20033;-90
2021/01/08 03:48:39;;;;;;;8.00;7.57;;;;;;;7.91;64.23;101312.75;4973595;28;20049;-90
2021/01/08 03:51:06;;;;;;;8.32;7.82;;;;;;;7.89;64.36;101321.06;4977675;28;20156;-88
2021/01/08 03:53:32;;;;;;;8.57;7.95;;;;;;;7.87;64.26;101318.50;4992894;28;20026;-89
2021/01/08 03:55:57;;;;;;;6.05;5.75;;;;;;;7.76;64.42;101299.88;4975507;28;20026;-90
2021/01/08 03:58:23;;;;;;;9.43;8.98;;;;;;;7.78;64.36;101314.09;4979181;28;20049;-88
2021/01/08 04:00:48;;;;;;;12.18;11.57;;;;;;;7.81;64.27;101324.59;4992612;28;20034;-91
2021/01/08 04:03:14;;;;;;;5.80;5.50;;;;;;;7.76;64.25;101313.44;4976418;28;20091;-89
2021/01/08 04:05:40;;;;;;;7.32;6.93;;;;;;;7.75;64.34;101310.88;4990536;28;20061;-89
2021/01/08 04:08:05;;;;;;;12.85;12.15;;;;;;;7.75;64.10;101314.44;4975755;28;20488;-90
2021/01/08 04:10:31;;;;;;;12.48;11.88;;;;;;;7.76;64.09;101315.31;5010755;28;20028;-90
2021/01/08 04:12:56;;;;;;;12.45;11.75;;;;;;;7.75;64.22;101336.09;4991938;28;20040;-91
2021/01/08 04:15:22;;;;;;;12.95;12.27;;;;;;;7.69;64.09;101329.50;4976276;28;20447;-90
2021/01/08 04:17:47;;;;;;;9.02;8.52;;;;;;;7.68;64.29;101316.97;4993891;28;20083;-90
2021/01/08 04:20:13;;;;;;;7.72;7.32;;;;;;;7.59;64.04;101312.53;4977867;28;20026;-91
2021/01/08 04:22:38;;;;;;;5.95;5.65;;;;;;;7.68;64.22;101330.50;4976993;28;20050;-90
2021/01/08 04:25:04;;;;;;;6.93;6.57;;;;;;;7.62;64.35;101312.22;4992048;28;20048;-90
2021/01/08 04:27:30;;;;;;;6.15;5.85;;;;;;;7.64;64.14;101323.72;4991823;28;20038;-89
2021/01/08 04:29:55;;;;;;;9.80;9.10;;;;;;;7.59;64.16;101323.38;5008292;28;20034;-90
2021/01/08 04:32:21;;;;;;;6.63;6.30;;;;;;;7.57;64.17;101324.53;4992895;28;20026;-90
2021/01/08 04:34:46;;;;;;;6.82;6.53;;;;;;;7.55;64.08;101324.69;4994474;28;20044;-90
2021/01/08 04:37:12;;;;;;;10.45;9.95;;;;;;;7.52;64.22;101325.03;5005475;28;20033;-92
2021/01/08 04:39:37;;;;;;;13.48;12.73;;;;;;;7.50;64.23;101325.19;4998266;28;20104;-91
2021/01/08 04:42:03;;;;;;;10.93;10.27;;;;;;;7.46;64.30;101321.13;4976665;28;20034;-89
2021/01/08 04:44:30;;;;;;;13.27;12.52;;;;;;;7.43;64.19;101315.19;4994058;28;20052;-88
2021/01/08 04:46:55;;;;;;;11.73;11.13;;;;;;;7.45;64.53;101332.13;5012533;28;20034;-89
2021/01/08 04:49:21;;;;;;;11.38;10.77;;;;;;;7.39;64.37;101320.09;4997690;28;20037;-90
2021/01/08 04:51:48;;;;;;;10.02;9.50;;;;;;;7.38;64.34;101320.25;4995955;28;20038;-89
2021/01/08 04:54:13;;;;;;;6.78;6.47;;;;;;;7.41;64.30;101320.75;5014120;28;20032;-89
2021/01/08 04:56:53;;;;;;;10.35;9.75;;;;;;;7.42;64.33;101335.16;4995131;28;20034;-89
2021/01/08 04:59:19;;;;;;;7.80;7.40;;;;;;;7.40;64.31;101348.84;5028052;28;20033;-89
2021/01/08 05:01:45;;;;;;;8.05;7.65;;;;;;;7.41;64.31;101337.00;5012240;28;20759;-90
2021/01/08 05:04:10;;;;;;;12.07;11.48;;;;;;;7.34;64.47;101338.69;5013513;28;20029;-89
2021/01/08 05:06:36;;;;;;;10.68;10.07;;;;;;;7.32;64.18;101340.69;4995545;28;20026;-90
2021/01/08 05:09:02;;;;;;;9.93;9.45;;;;;;;7.29;64.30;101327.47;5010566;28;20044;-89
2021/01/08 05:11:28;;;;;;;8.98;8.50;;;;;;;7.39;64.56;101347.16;5010478;28;20030;-89
2021/01/08 05:14:02;;;;;;;7.90;7.50;;;;;;;7.44;64.42;101347.50;5017249;28;20498;-90
2021/01/08 05:16:30;;;;;;;6.78;6.38;;;;;;;7.47;64.42;101349.03;4993552;28;20033;-90
2021/01/08 05:18:57;;;;;;;7.00;6.70;;;;;;;7.47;64.17;101349.88;5013652;28;20796;-91
2021/01/08 05:21:26;;;;;;;6.18;5.88;;;;;;;7.50;64.39;101351.41;4980092;28;20030;-92
2021/01/08 05:23:56;;;;;;;9.38;8.98;;;;;;;7.43;64.46;101342.25;5015711;28;20025;-93
2021/01/08 05:26:22;;;;;;;12.23;11.52;;;;;;;7.43;64.37;101339.53;5013175;28;20045;-90
2021/01/08 05:28:54;;;;;;;12.38;11.57;;;;;;;7.53;64.28;101360.03;5013920;28;20030;-91
2021/01/08 05:31:22;;;;;;;9.60;9.10;;;;;;;7.49;64.21;101357.84;5027384;28;20092;-90
2021/01/08 05:33:49;;;;;;;13.60;12.90;;;;;;;7.51;64.23;101367.50;5017811;28;20236;-90
2021/01/08 05:36:15;;;;;;;11.48;10.88;;;;;;;7.47;64.40;101359.88;5017292;28;20062;-90
2021/01/08 05:38:43;;;;;;;6.57;6.20;;;;;;;7.49;64.35;101363.25;5013605;28;20040;-89
2021/01/08 05:41:10;;;;;;;7.32;7.00;;;;;;;7.45;64.38;101360.03;5011909;28;20066;-90
2021/01/08 05:43:38;;;;;;;9.38;8.77;;;;;;;7.37;64.64;101351.88;4994952;28;20034;-89
2021/01/08 05:46:34;;;;;;;10.68;10.07;;;;;;;7.43;64.33;101370.19;5011127;28;20057;-90
2021/01/08 05:49:02;;;;;;;7.47;6.85;;;;;;;7.46;64.41;101364.44;5010201;28;20381;-90
2021/01/08 05:51:31;;;;;;;16.58;15.68;;;;;;;7.48;64.30;101367.81;5001901;28;20028;-91
2021/01/08 05:53:59;;;;;;;11.00;10.20;;;;;;;7.45;64.54;101370.00;5010274;28;20026;-91
2021/01/08 05:56:25;;;;;;;16.02;15.02;;;;;;;7.48;64.40;101370.53;5012225;28;20018;-91
2021/01/08 05:58:50;;;;;;;13.38;12.63;;;;;;;7.46;64.52;101369.84;5010359;28;20044;-90
2021/01/08 06:01:17;;;;;;;15.52;14.63;;;;;;;7.49;64.39;101371.38;4994984;28;20030;-90
2021/01/08 06:03:43;;;;;;;13.45;12.45;;;;;;;7.54;64.28;101382.56;4993871;28;20048;-89
2021/01/08 06:06:10;;;;;;;12.77;12.00;;;;;;;7.54;64.35;101387.97;5012014;28;20018;-91
2021/01/08 06:08:50;;;;;;;15.35;14.55;;;;;;;7.48;64.13;101367.81;4995904;28;20041;-88
2021/01/08 06:11:27;;;;;;;10.63;10.07;;;;;;;7.53;64.35;101379.00;4995749;28;20634;-89
2021/01/08 06:13:55;;;;;;;10.10;9.60;;;;;;;7.47;64.46;101376.09;5006782;28;20104;-88
2021/01/08 06:16:21;;;;;;;14.48;13.23;;;;;;;7.53;64.45;101397.09;5024777;28;20029;-89
2021/01/08 06:18:54;;;;;;;10.77;10.18;;;;;;;7.49;64.42;101399.28;5008729;28;20037;-89
2021/01/08 06:21:33;;;;;;;10.20;9.55;;;;;;;7.45;64.43;101397.06;5008090;28;20034;-90
2021/01/08 06:23:59;;;;;;;11.88;11.07;;;;;;;7.44;64.46;101393.50;5009463;28;20599;-90
2021/01/08 06:26:26;;;;;;;16.40;15.50;;;;;;;7.38;64.66;101393.31;5009665;28;20029;-89
2021/01/08 06:28:59;;;;;;;11.02;10.35;;;;;;;7.45;64.67;101410.59;5012147;28;20253;-90
2021/01/08 06:31:34;;;;;;;6.35;5.95;;;;;;;7.45;64.63;101424.13;5011116;28;20022;-88
2021/01/08 06:34:01;;;;;;;8.15;7.65;;;;;;;7.44;64.42;101409.75;5010718;28;20025;-90
2021/01/08 06:36:32;;;;;;;7.65;7.15;;;;;;;7.44;64.50;101415.16;5010231;28;20026;-89
2021/01/08 06:39:00;;;;;;;12.95;11.85;;;;;;;7.41;64.25;101411.94;5009230;28;20030;-89
2021/01/08 06:41:40;;;;;;;8.80;8.32;;;;;;;7.40;64.40;101423.75;5105946;27;20999;-88
2021/01/08 06:44:06;;;;;;;9.30;8.80;;;;;;;7.37;64.44;101410.53;5072679;28;20118;-90
2021/01/08 06:46:34;;;;;;;8.95;8.45;;;;;;;7.40;64.12;101429.16;5070161;28;20081;-89
2021/01/08 06:49:08;;;;;;;9.13;8.52;;;;;;;7.25;64.43;101400.00;5106947;28;20035;-89
2021/01/08 06:51:36;;;;;;;10.88;10.05;;;;;;;7.23;64.38;101402.03;5087638;28;20447;-89
2021/01/08 06:54:09;;;;;;;7.88;7.38;;;;;;;7.38;64.37;101431.19;5088170;28;20540;-89
2021/01/08 06:56:37;;;;;;;9.60;9.00;;;;;;;7.38;64.36;101426.63;5106346;28;20028;-88
2021/01/08 06:59:10;;;;;;;12.55;11.70;;;;;;;7.35;64.33;101429.66;5104906;28;20731;-88
2021/01/08 07:01:54;;;;;;;12.85;12.02;;;;;;;7.37;64.37;101434.91;5089758;28;20043;-89
2021/01/08 07:04:25;;;;;;;7.82;7.43;;;;;;;7.33;64.33;101434.38;5103612;28;20039;-88
2021/01/08 07:06:53;;;;;;;8.05;7.50;;;;;;;7.29;64.37;101443.81;5072569;28;20039;-87
2021/01/08 07:09:18;;;;;;;9.35;8.70;;;;;;;7.28;64.27;101448.38;5103860;28;20035;-86
2021/01/08 07:11:52;;;;;;;12.98;12.23;;;;;;;7.26;64.33;101446.84;5106595;28;20036;-89
2021/01/08 07:14:22;;;;;;;9.85;9.35;;;;;;;7.21;64.30;101446.47;5121401;27;20393;-89
2021/01/08 07:16:49;;;;;;;7.93;7.50;;;;;;;7.12;64.45;101432.91;5056510;28;20077;-89
2021/01/08 07:19:18;;;;;;;10.90;10.13;;;;;;;7.20;64.43;101452.88;5105505;28;20019;-88
2021/01/08 07:21:48;;;;;;;15.88;14.70;;;;;;;7.12;64.50;101457.25;5104934;28;20020;-91
2021/01/08 07:24:18;;;;;;;9.98;9.38;;;;;;;7.02;64.68;101442.97;5105557;28;20031;-89
2021/01/08 07:26:44;;;;;;;9.32;8.82;;;;;;;7.11;64.68;101460.13;5105226;28;20541;-89
2021/01/08 07:29:10;;;;;;;10.57;10.02;;;;;;;7.06;64.46;101451.59;5104207;28;20111;-90
2021/01/08 07:31:38;;;;;;;13.40;12.68;;;;;;;7.04;64.42;101462.59;5105113;28;20046;-90
2021/01/08 07:34:05;;;;;;;17.33;16.38;;;;;;;7.06;64.12;101468.72;5104950;28;20032;-89
2021/01/08 07:36:32;;;;;;;13.93;13.13;;;;;;;7.03;64.52;101477.13;5103394;28;20034;-90
2021/01/08 07:38:58;;;;;;;11.93;11.02;;;;;;;7.04;64.41;101477.97;5088211;28;20021;-91
2021/01/08 07:41:30;;;;;;;14.05;13.30;;;;;;;6.99;64.54;101473.03;5086355;28;20051;-90
2021/01/08 07:43:56;;;;;;;11.85;10.82;;;;;;;6.99;64.82;101481.97;5089957;28;20024;-90
2021/01/08 07:46:32;;;;;;;17.30;16.05;;;;;;;6.92;64.65;101486.34;5086167;28;20043;-90
2021/01/08 07:49:00;;;;;;;11.80;11.10;;;;;;;6.90;64.74;101476.69;5089491;28;20442;-90
2021/01/08 07:51:47;;;;;;;16.90;15.88;;;;;;;6.94;64.70;101497.00;5101630;28;20028;-88
2021/01/08 07:54:13;;;;;;;22.67;21.20;;;;;;;6.92;64.74;101494.47;5072776;28;20028;-89
2021/01/08 07:57:05;;;;;;;15.50;14.63;;;;;;;6.91;64.90;101505.44;5089100;28;20039;-90
2021/01/08 07:59:30;;;;;;;16.95;15.95;;;;;;;6.85;64.83;101511.47;5091872;28;20449;-90
2021/01/08 08:01:56;;;;;;;18.63;17.58;;;;;;;6.90;64.90;101517.25;5090690;28;20123;-90
2021/01/08 08:04:25;;;;;;;20.15;18.95;;;;;;;6.90;64.76;101520.78;5091951;28;20408;-91
2021/01/08 08:06:51;;;;;;;18.10;16.77;;;;;;;6.84;64.72;101517.84;5090656;28;20531;-90
2021/01/08 08:09:17;;;;;;;15.05;13.95;;;;;;;6.93;64.72;101525.88;5090304;28;20031;-89
2021/01/08 08:11:43;;;;;;;11.07;10.40;;;;;;;6.96;64.57;101530.97;5056044;28;20036;-88
2021/01/08 08:14:14;;;;;;;14.25;13.25;;;;;;;6.96;64.41;101533.69;5059287;28;20040;-90
2021/01/08 08:16:40;;;;;;;10.90;10.25;;;;;;;6.92;64.70;101529.59;5092499;28;20059;-90
2021/01/08 08:19:07;;;;;;;10.88;10.15;;;;;;;7.03;64.45;101552.84;5072231;28;20063;-91
2021/01/08 08:21:33;;;;;;;11.73;11.02;;;;;;;6.99;64.54;101544.19;5091572;28;20039;-90
2021/01/08 08:24:00;;;;;;;11.90;11.20;;;;;;;7.07;64.27;101527.19;5072721;28;20032;-89
2021/01/08 08:26:28;;;;;;;10.85;10.25;;;;;;;7.21;64.16;101554.69;5095694;28;20111;-88
2021/01/08 08:29:11;;;;;;;8.77;8.18;;;;;;;7.31;63.93;101556.28;5089675;28;20064;-88
2021/01/08 08:31:45;;;;;;;7.75;7.22;;;;;;;7.45;63.83;101560.28;5090805;28;20059;-89
2021/01/08 08:34:12;;;;;;;7.07;6.68;;;;;;;7.49;63.92;101556.25;5087421;28;20367;-90
2021/01/08 08:36:39;;;;;;;9.55;8.93;;;;;;;7.76;63.73;101557.09;5074860;28;20036;-91
2021/01/08 08:39:15;;;;;;;10.63;9.73;;;;;;;8.06;63.89;101554.88;5090359;28;20363;-88
2021/01/08 08:41:47;;;;;;;10.05;9.18;;;;;;;8.66;63.53;101553.94;5088516;28;20127;-90
2021/01/08 08:44:18;;;;;;;15.73;14.55;;;;;;;9.37;62.80;101572.47;5088500;28;20089;-91
2021/01/08 08:46:57;;;;;;;10.45;9.60;;;;;;;9.79;62.42;101569.56;5089911;28;20061;-88
2021/01/08 08:49:29;;;;;;;9.05;8.35;;;;;;;10.00;62.16;101571.69;5081551;28;20029;-90
2021/01/08 08:51:55;;;;;;;10.77;9.52;;;;;;;10.12;61.59;101574.88;5087398;28;20024;-91
2021/01/08 08:54:23;;;;;;;10.07;8.57;;;;;;;9.94;61.13;101583.25;5073187;28;20145;-88
2021/01/08 08:56:56;;;;;;;10.45;9.63;;;;;;;9.65;60.78;101587.41;5086999;28;20028;-88
2021/01/08 08:59:38;;;;;;;6.40;5.85;;;;;;;9.49;61.25;101588.25;5084636;28;20028;-89
2021/01/08 09:02:05;;;;;;;6.40;5.40;;;;;;;9.45;61.26;101596.91;5086046;28;20381;-89
2021/01/08 09:04:31;;;;;;;5.40;5.00;;;;;;;9.25;61.03;101591.84;5086380;28;20024;-89
2021/01/08 09:07:00;;;;;;;7.30;6.60;;;;;;;9.22;60.85;101589.47;5084942;28;20035;-88
2021/01/08 09:09:28;;;;;;;10.85;10.15;;;;;;;9.11;60.60;101582.50;5070704;28;20024;-88
2021/01/08 09:12:25;;;;;;;10.55;9.80;;;;;;;9.12;60.75;101596.91;5087697;28;20035;-88
2021/01/08 09:14:55;;;;;;;7.38;6.82;;;;;;;9.20;60.84;101613.19;5088281;28;20020;-90
2021/01/08 09:17:25;;;;;;;11.93;10.88;;;;;;;9.14;60.96;101598.44;5085617;28;20932;-89
2021/01/08 09:19:59;;;;;;;8.57;7.97;;;;;;;9.20;60.70;101618.63;5089064;28;20036;-88
2021/01/08 09:22:29;;;;;;;7.53;6.85;;;;;;;9.23;60.64;101618.28;5086755;28;20032;-90
2021/01/08 09:24:58;;;;;;;8.75;8.15;;;;;;;9.20;60.42;101612.34;5088742;28;20144;-89
2021/01/08 09:27:24;;;;;;;8.93;8.23;;;;;;;9.18;60.36;101596.22;5086430;28;20035;-88
2021/01/08 09:29:50;;;;;;;8.85;8.15;;;;;;;9.28;60.30;101618.63;5068193;28;20044;-89
2021/01/08 09:32:30;;;;;;;17.17;16.00;;;;;;;9.42;60.88;101610.81;5071612;28;20031;-89
2021/01/08 09:35:04;;;;;;;14.65;13.65;;;;;;;9.66;60.21;101612.69;5082047;28;20218;-86
2021/01/08 09:37:37;;;;;;;15.38;14.32;;;;;;;9.77;59.53;101619.63;5088673;28;20047;-90
2021/01/08 09:40:14;;;;;;;14.88;13.82;;;;;;;9.93;59.90;101630.47;5088846;28;20565;-89
2021/01/08 09:42:40;;;;;;;9.23;8.35;;;;;;;10.12;59.74;101633.84;5088474;28;20508;-94
2021/01/08 09:45:23;;;;;;;9.43;8.73;;;;;;;10.26;58.63;101630.41;5055444;28;20031;-92
2021/01/08 09:47:50;;;;;;;7.70;7.10;;;;;;;10.30;58.41;101636.31;5089627;28;20039;-92
2021/01/08 09:50:26;;;;;;;7.80;7.20;;;;;;;10.23;58.49;101635.34;5091265;28;20020;-92
2021/01/08 09:52:56;;;;;;;5.80;5.40;;;;;;;10.45;58.63;101636.47;5086463;28;20620;-89
2021/01/08 09:55:30;;;;;;;6.87;6.47;;;;;;;10.34;57.29;101627.66;5089435;28;20024;-88
2021/01/08 09:58:00;;;;;;;6.75;5.55;;;;;;;11.08;57.82;101653.69;5087319;28;20048;-90
2021/01/08 10:00:38;;;;;;;6.47;5.97;;;;;;;12.21;55.90;101651.22;5079477;28;20136;-91
2021/01/08 10:03:04;;;;;;;6.18;5.78;;;;;;;12.78;52.52;101655.97;5086667;28;20205;-89
2021/01/08 10:05:31;;;;;;;6.03;5.63;;;;;;;12.80;49.56;101651.16;5084433;28;20473;-90
2021/01/08 10:07:59;;;;;;;5.97;5.13;;;;;;;12.37;50.45;101651.00;5087037;28;20028;-89
2021/01/08 10:10:27;;;;;;;3.80;3.50;;;;;;;12.63;51.14;101653.25;5070689;28;20340;-91
2021/01/08 10:12:54;;;;;;;3.10;2.80;;;;;;;12.21;51.58;101654.78;5087009;28;20028;-91
2021/01/08 10:15:32;;;;;;;5.28;5.03;;;;;;;12.65;51.06;101667.56;5069560;28;20043;-89
2021/01/08 10:18:07;;;;;;;4.57;4.32;;;;;;;13.04;50.09;101657.34;5084963;28;20020;-91
2021/01/08 10:20:49;;;;;;;3.47;3.28;;;;;;;13.58;49.52;101666.97;5087414;28;20027;-89
2021/01/08 10:23:18;;;;;;;2.53;2.38;;;;;;;13.68;48.22;101650.22;5080911;28;20610;-87
2021/01/08 10:25:45;;;;;;;5.47;5.10;;;;;;;13.31;48.65;101666.66;5087794;28;20039;-88
2021/01/08 10:28:22;;;;;;;6.72;5.47;;;;;;;12.87;48.74;101673.09;5085818;28;20046;-89
2021/01/08 10:30:53;;;;;;;5.60;5.10;;;;;;;12.48;50.33;101664.19;5088360;28;20097;-90
2021/01/08 10:33:21;;;;;;;3.97;3.67;;;;;;;12.42;51.17;101656.78;5087566;28;20020;-90
2021/01/08 10:35:48;;;;;;;4.28;3.72;;;;;;;12.21;52.11;101662.97;5086874;28;20027;-88
2021/01/08 10:38:14;;;;;;;3.70;3.40;;;;;;;12.07;52.27;101674.72;5071827;28;20020;-88
2021/01/08 10:40:39;;;;;;;3.28;2.97;;;;;;;11.46;53.15;101678.25;5067414;28;20120;-86
2021/01/08 10:43:05;;;;;;;3.58;3.28;;;;;;;11.44;53.49;101662.09;5072259;28;20024;-89
2021/01/08 10:45:30;;;;;;;6.43;6.03;;;;;;;11.19;54.09;101682.38;5071007;28;20499;-89
2021/01/08 10:47:56;;;;;;;4.50;4.20;;;;;;;11.02;54.42;101677.00;5067158;28;20043;-89
2021/01/08 10:50:21;;;;;;;6.30;5.90;;;;;;;10.44;55.55;101673.72;5086630;28;20479;-89
2021/01/08 10:52:47;;;;;;;5.18;4.88;;;;;;;10.51;55.23;101676.56;5064935;28;20032;-87
2021/01/08 10:55:12;;;;;;;5.70;5.22;;;;;;;10.61;55.54;101690.78;5066936;28;20134;-88
2021/01/08 10:57:38;;;;;;;5.15;4.72;;;;;;;10.47;55.46;101661.63;5055103;28;20490;-88
2021/01/08 11:00:09;;;;;;;4.90;4.60;;;;;;;10.56;56.00;101674.16;5085075;28;20021;-89
2021/01/08 11:02:36;;;;;;;3.97;3.73;;;;;;;10.46;56.26;101668.94;5086243;28;20131;-89
2021/01/08 11:05:04;;;;;;;6.47;6.07;;;;;;;10.53;55.54;101701.72;5090387;28;20043;-90
2021/01/08 11:07:32;;;;;;;8.82;5.50;;;;;;;10.60;55.83;101690.97;5085032;28;20360;-86
2021/01/08 11:09:57;;;;;;;7.60;7.07;;;;;;;10.41;55.48;101689.50;5086201;28;20024;-86
2021/01/08 11:12:23;;;;;;;6.90;6.50;;;;;;;10.31;56.09;101676.09;5084030;28;20024;-88
2021/01/08 11:14:48;;;;;;;8.77;8.38;;;;;;;10.47;55.62;101680.66;5063311;28;20133;-88
2021/01/08 11:17:14;;;;;;;6.07;5.63;;;;;;;10.52;55.21;101679.13;5085718;28;20028;-88
2021/01/08 11:19:39;;;;;;;5.93;5.53;;;;;;;10.53;55.52;101683.53;5052675;28;20508;-88
2021/01/08 11:22:05;;;;;;;3.47;3.38;;;;;;;10.46;55.89;101679.81;5050699;28;20390;-87
2021/01/08 11:24:30;;;;;;;5.43;5.13;;;;;;;10.36;56.12;101676.44;5052061;28;20032;-88
2021/01/08 11:26:55;;;;;;;8.30;7.80;;;;;;;10.15;56.20;101657.97;5080167;28;20218;-90
2021/01/08 11:29:21;;;;;;;6.47;5.80;;;;;;;9.89;56.98;101683.47;5085345;28;20024;-89
2021/01/08 11:31:49;;;;;;;6.70;6.40;;;;;;;9.66;57.67;101683.28;5068299;28;20020;-89
2021/01/08 11:34:15;;;;;;;7.70;6.43;;;;;;;9.84;57.51;101662.25;5070876;28;20048;-87